Terminal Aerodrome Forecast
Issued by NWS

Home | Current Version | Previous Version | Text Only | Print | Product List | Glossary On
Versions: 1 2 3 4 5 6 7 8 9 10 11 12 13 14 15 16 17 18 19 20 21 22 23 24 25 26 27 28 29 30 31 32 33 34 35 36 37 38 39 40 41 42 43 44 45 46 47 48 49 50
000
FTUS44 KHGX 051432 AAA
TAFIAH
TAF AMD
KIAH 051432Z 0515/0618 35017G21KT P6SM VCSH OVC014
      TEMPO 0515/0516 6SM -TSRA OVC015CB
     FM051700 01017G30KT P6SM OVC015
     FM051900 01017G27KT P6SM BKN025 OVC100
     FM052100 36016G26KT P6SM SCT035 SCT100
     FM060100 01012KT P6SM SKC
     FM061400 03008KT P6SM SKC=

USA.gov is the U.S. government's official web portal to all federal, state and local government web resources and services.